Time;durP1;ratioP1;P1;durP2;ratioP2;P2;SDS_P1;SDS_P2;PMS_P1;PMS_P2;Temp;Humidity;BMP_temperature;BMP_pressure;BME280_temperature;BME280_humidity;BME280_pressure;Samples;Min_cycle;Max_cycle;Signal;HPM_P1;HPM_P2
2023/05/07 00:00:36;;;;;;;7.30;3.28;;;17.70;80.60;;;16.96;65.41;100578.06;5047386;28;20033;-85
2023/05/07 00:03:03;;;;;;;6.50;2.92;;;17.70;80.70;;;16.95;65.34;100579.16;5050416;28;20051;-85
2023/05/07 00:05:31;;;;;;;7.22;2.90;;;17.60;80.60;;;16.91;65.53;100592.28;5059255;28;20068;-83
2023/05/07 00:07:59;;;;;;;6.13;3.17;;;17.60;80.70;;;16.91;65.67;100583.41;5054373;28;20147;-83
2023/05/07 00:10:27;;;;;;;7.35;2.80;;;17.60;80.80;;;16.89;65.62;100586.34;5052147;28;20131;-85
2023/05/07 00:12:54;;;;;;;10.80;3.72;;;17.60;80.90;;;16.88;65.74;100590.09;5056719;28;20133;-83
2023/05/07 00:15:21;;;;;;;6.82;3.10;;;17.60;80.90;;;16.87;65.93;100582.25;5050816;28;20041;-85
2023/05/07 00:17:49;;;;;;;5.97;3.17;;;17.60;81.00;;;16.85;65.70;100584.41;5059922;28;20072;-85
2023/05/07 00:20:16;;;;;;;7.72;3.25;;;17.50;81.00;;;16.86;65.79;100580.66;5049520;28;20132;-85
2023/05/07 00:22:43;;;;;;;5.65;3.25;;;17.50;81.10;;;16.85;65.81;100584.41;5048818;28;20068;-85
2023/05/07 00:25:12;;;;;;;5.40;3.17;;;17.50;81.20;;;16.84;65.88;100586.28;5061411;28;20036;-85
2023/05/07 00:27:39;;;;;;;9.27;3.47;;;17.50;81.20;;;16.82;66.10;100579.50;5054826;28;20068;-85
2023/05/07 00:30:08;;;;;;;5.70;3.00;;;17.50;81.30;;;16.80;66.05;100579.78;5060356;28;20131;-85
2023/05/07 00:32:36;;;;;;;5.32;3.10;;;17.50;81.20;;;16.80;65.84;100579.78;5046768;28;20037;-85
2023/05/07 00:35:03;;;;;;;6.47;2.70;;;17.50;81.30;;;16.79;66.16;100578.16;5058429;28;20052;-85
2023/05/07 00:37:31;;;;;;;4.95;3.03;;;17.50;81.40;;;16.78;66.09;100571.09;5053294;28;20048;-85
2023/05/07 00:39:58;;;;;;;5.97;3.33;;;17.50;81.40;;;16.77;66.09;100580.25;5054851;28;20048;-85
2023/05/07 00:42:27;;;;;;;5.22;3.22;;;17.50;81.60;;;16.75;66.18;100565.41;5050037;28;20072;-85
2023/05/07 00:44:55;;;;;;;6.80;3.35;;;17.40;81.40;;;16.73;66.13;100562.97;5047225;28;20053;-85
2023/05/07 00:47:22;;;;;;;6.60;3.35;;;17.40;81.40;;;16.72;66.13;100572.09;5070093;28;20056;-85
2023/05/07 00:49:49;;;;;;;6.90;4.22;;;17.40;81.40;;;16.71;66.04;100571.28;5055348;28;20656;-85
2023/05/07 00:52:18;;;;;;;8.25;4.60;;;17.40;81.40;;;16.71;66.10;100567.75;5057913;28;20517;-85
2023/05/07 00:54:46;;;;;;;7.97;4.60;;;17.40;81.40;;;16.70;66.04;100563.44;5056686;22;20041;-74
2023/05/07 00:57:13;;;;;;;9.90;5.03;;;17.40;81.40;;;16.69;66.12;100556.44;5047829;28;20087;-73
2023/05/07 00:59:43;;;;;;;10.93;5.20;;;17.40;81.50;;;16.69;66.01;100557.25;5026829;28;20042;-73
2023/05/07 01:02:11;;;;;;;10.25;5.55;;;17.40;81.40;;;16.68;66.02;100554.78;5046868;28;20581;-73
2023/05/07 01:04:38;;;;;;;8.25;4.60;;;17.40;81.40;;;16.65;65.93;100550.72;5045222;28;20060;-73
2023/05/07 01:07:06;;;;;;;8.20;4.70;;;17.40;81.40;;;16.64;65.90;100564.41;5025397;28;20124;-73
2023/05/07 01:09:35;;;;;;;9.48;4.60;;;17.40;81.40;;;16.62;65.92;100563.88;5025917;28;20052;-73
2023/05/07 01:12:02;;;;;;;8.63;4.72;;;17.30;81.40;;;16.59;65.74;100564.34;5044755;28;20045;-73
2023/05/07 01:14:30;;;;;;;7.55;3.90;;;17.30;81.50;;;16.56;65.82;100556.78;5037945;28;20120;-73
2023/05/07 01:16:59;;;;;;;10.40;4.68;;;17.30;81.40;;;16.54;65.79;100559.72;5040633;28;20041;-73
2023/05/07 01:19:30;;;;;;;9.30;5.05;;;17.20;81.40;;;16.54;65.92;100556.19;5030178;28;20037;-73
2023/05/07 01:22:04;;;;;;;8.10;4.30;;;17.20;81.50;;;16.53;66.14;100562.66;5030376;28;20118;-73
2023/05/07 01:24:39;;;;;;;11.05;5.10;;;17.20;81.60;;;16.51;66.17;100565.59;5034781;28;20045;-73
2023/05/07 01:27:07;;;;;;;7.88;4.72;;;17.20;81.80;;;16.48;66.41;100561.53;5030351;28;20044;-73
2023/05/07 01:29:35;;;;;;;6.93;4.28;;;17.20;81.90;;;16.47;66.43;100561.78;5029406;28;20068;-73
2023/05/07 01:32:03;;;;;;;7.68;4.43;;;17.20;82.00;;;16.45;66.56;100556.66;5026739;28;20084;-73
2023/05/07 01:34:35;;;;;;;7.10;5.00;;;17.10;82.20;;;16.45;66.76;100561.22;5047656;28;20115;-73
2023/05/07 01:37:03;;;;;;;8.85;4.43;;;17.20;82.20;;;16.46;66.58;100563.66;5032324;28;20073;-73
2023/05/07 01:39:31;;;;;;;7.85;4.60;;;17.20;82.20;;;16.45;67.01;100564.72;5041122;28;20559;-73
2023/05/07 01:42:00;;;;;;;11.45;5.35;;;17.20;82.40;;;16.42;67.21;100557.13;5037223;28;20131;-73
2023/05/07 01:44:29;;;;;;;8.25;4.47;;;17.10;82.50;;;16.40;67.25;100559.28;5030346;28;20076;-73
2023/05/07 01:46:57;;;;;;;6.30;3.97;;;17.10;82.70;;;16.40;67.18;100553.88;5029113;28;20056;-73
2023/05/07 01:49:25;;;;;;;7.10;4.30;;;17.10;82.70;;;16.38;67.29;100549.81;5030136;28;20043;-74
2023/05/07 01:51:53;;;;;;;10.48;4.20;;;17.10;82.80;;;16.37;67.24;100551.69;5030079;28;20797;-73
2023/05/07 01:54:20;;;;;;;13.07;4.47;;;17.10;82.90;;;16.36;67.31;100546.56;5047547;28;20229;-73
2023/05/07 01:56:48;;;;;;;7.88;4.00;;;17.00;82.70;;;16.35;67.24;100558.38;5028325;28;20044;-73
2023/05/07 01:59:17;;;;;;;9.23;4.22;;;17.00;82.70;;;16.34;67.24;100554.03;5024292;28;20069;-74
2023/05/07 02:01:45;;;;;;;7.57;4.38;;;17.00;82.70;;;16.33;67.26;100555.91;5027304;28;20045;-74
2023/05/07 02:04:12;;;;;;;8.55;4.65;;;17.00;82.60;;;16.33;67.11;100552.41;5032445;28;20497;-73
2023/05/07 02:06:40;;;;;;;10.50;4.95;;;17.00;82.60;;;16.32;67.32;100551.59;5047206;28;20040;-73
2023/05/07 02:09:09;;;;;;;8.55;5.10;;;17.00;82.70;;;16.32;67.39;100559.69;5029947;28;20051;-73
2023/05/07 02:11:38;;;;;;;8.63;5.00;;;17.00;82.90;;;16.32;67.26;100553.50;5037966;28;20047;-74
2023/05/07 02:14:06;;;;;;;7.47;4.50;;;17.00;82.90;;;16.31;67.44;100554.56;5042378;28;20124;-73
2023/05/07 02:16:34;;;;;;;6.97;4.72;;;17.00;83.00;;;16.28;67.41;100558.53;5043009;28;20045;-73
2023/05/07 02:19:02;;;;;;;6.90;4.10;;;17.00;82.90;;;16.27;67.50;100556.09;5029655;28;20076;-73
2023/05/07 02:21:29;;;;;;;7.80;4.20;;;17.00;83.10;;;16.25;67.44;100556.34;5028664;28;20049;-73
2023/05/07 02:23:56;;;;;;;8.25;4.93;;;16.90;83.00;;;16.24;67.35;100552.00;5027900;28;20045;-73
2023/05/07 02:26:24;;;;;;;7.50;4.30;;;16.90;83.10;;;16.23;67.47;100551.19;5029672;28;20048;-74
2023/05/07 02:28:51;;;;;;;7.88;4.45;;;16.90;83.10;;;16.22;67.43;100546.06;5035726;28;20051;-73
2023/05/07 02:31:18;;;;;;;7.18;4.38;;;16.90;83.20;;;16.21;67.36;100549.84;5034895;28;20055;-73
2023/05/07 02:33:47;;;;;;;7.72;5.47;;;16.90;83.10;;;16.21;67.47;100547.16;5038004;28;20052;-73
2023/05/07 02:36:15;;;;;;;8.82;5.10;;;16.90;83.00;;;16.19;67.70;100547.38;5030580;28;20056;-74
2023/05/07 02:38:49;;;;;;;9.40;4.63;;;16.90;83.20;;;16.18;67.58;100545.75;5035552;28;20493;-74
2023/05/07 02:41:16;;;;;;;8.38;4.57;;;16.90;83.30;;;16.17;67.33;100546.81;5034209;28;20077;-73
2023/05/07 02:43:43;;;;;;;7.68;5.00;;;16.90;83.30;;;16.14;67.31;100538.41;5029528;28;20041;-73
2023/05/07 02:46:11;;;;;;;9.02;5.00;;;16.90;83.20;;;16.11;67.36;100545.13;5020577;28;20557;-74
2023/05/07 02:48:43;;;;;;;7.93;4.65;;;16.80;83.00;;;16.09;67.34;100547.22;5045861;28;20091;-73
2023/05/07 02:51:11;;;;;;;6.30;4.57;;;16.80;83.00;;;16.08;67.18;100550.16;5029048;28;20053;-73
2023/05/07 02:53:41;;;;;;;7.15;4.90;;;16.80;82.90;;;16.05;67.08;100551.44;5039028;28;20515;-74
2023/05/07 02:56:08;;;;;;;8.10;4.65;;;16.80;83.00;;;16.03;67.27;100540.13;5030797;28;20519;-73
2023/05/07 02:58:35;;;;;;;7.82;4.88;;;16.70;83.10;;;16.03;67.18;100542.00;5032078;28;20041;-73
2023/05/07 03:01:04;;;;;;;8.60;4.40;;;16.70;83.00;;;16.01;67.11;100533.38;5025637;28;20080;-74
2023/05/07 03:03:52;;;;;;;9.75;4.72;;;16.70;83.00;;;15.99;67.15;100540.88;5035584;28;20053;-73
2023/05/07 03:06:21;;;;;;;6.95;5.00;;;16.70;83.00;;;15.98;67.06;100539.25;5024962;28;20699;-73
2023/05/07 03:08:48;;;;;;;9.27;5.15;;;16.70;83.10;;;15.95;67.18;100543.22;5044406;28;20123;-74
2023/05/07 03:11:15;;;;;;;8.77;4.82;;;16.60;83.10;;;15.93;67.20;100540.78;5025945;28;20596;-74
2023/05/07 03:13:42;;;;;;;9.80;5.20;;;16.60;83.10;;;15.92;67.15;100547.25;5041982;28;20106;-73
2023/05/07 03:16:09;;;;;;;9.07;5.32;;;16.60;83.10;;;15.91;67.25;100540.22;5035941;28;20140;-73
2023/05/07 03:18:36;;;;;;;9.38;5.82;;;16.60;83.30;;;15.90;67.41;100543.97;5022365;28;20501;-74
2023/05/07 03:21:04;;;;;;;7.80;5.38;;;16.60;83.30;;;15.89;67.46;100544.22;5029350;28;20091;-74
2023/05/07 03:23:32;;;;;;;8.32;5.55;;;16.60;83.30;;;15.89;67.44;100552.28;5026950;28;20052;-74
2023/05/07 03:26:00;;;;;;;8.45;5.43;;;16.60;83.50;;;15.86;67.52;100556.28;5045140;28;20517;-73
2023/05/07 03:28:27;;;;;;;10.85;5.15;;;16.60;83.50;;;15.85;67.59;100554.63;5029158;28;20041;-73
2023/05/07 03:30:59;;;;;;;10.35;5.57;;;16.60;83.50;;;15.83;67.75;100548.69;5038174;28;20432;-74
2023/05/07 03:33:27;;;;;;;12.15;5.45;;;16.50;83.60;;;15.82;67.82;100546.25;5025083;28;20051;-74
2023/05/07 03:35:55;;;;;;;8.25;5.60;;;16.50;83.60;;;15.80;67.81;100542.97;5032322;28;20050;-73
2023/05/07 03:38:25;;;;;;;8.82;5.93;;;16.50;83.70;;;15.78;67.66;100554.00;5039040;28;20055;-74
2023/05/07 03:40:54;;;;;;;8.38;5.50;;;16.50;83.70;;;15.77;67.71;100549.69;5042085;28;20037;-73
2023/05/07 03:43:21;;;;;;;9.65;6.28;;;16.40;83.50;;;15.75;67.78;100543.72;5040610;28;20059;-73
2023/05/07 03:45:55;;;;;;;13.30;5.80;;;16.50;83.70;;;15.74;67.71;100539.41;5033009;28;20114;-73
2023/05/07 03:48:26;;;;;;;11.75;6.07;;;16.50;83.70;;;15.72;67.80;100541.53;5033057;28;20556;-74
2023/05/07 03:50:57;;;;;;;10.63;6.22;;;16.40;83.60;;;15.70;67.74;100549.81;5036300;28;20056;-73
2023/05/07 03:53:24;;;;;;;9.85;5.20;;;16.40;83.70;;;15.69;67.76;100539.31;5026867;28;20084;-74
2023/05/07 03:55:52;;;;;;;9.98;5.88;;;16.40;83.70;;;15.69;67.84;100542.00;5036891;28;20079;-74
2023/05/07 03:58:20;;;;;;;10.35;6.45;;;16.40;83.70;;;15.69;67.99;100548.19;5031920;28;20037;-74
2023/05/07 04:00:48;;;;;;;8.70;5.95;;;16.40;83.80;;;15.69;67.82;100542.00;5028606;28;20056;-73
2023/05/07 04:03:28;;;;;;;9.68;5.93;;;16.40;83.90;;;15.67;68.07;100544.94;5047698;28;20060;-74
2023/05/07 04:05:58;;;;;;;7.65;5.82;;;16.30;83.90;;;15.67;68.01;100544.94;5031389;28;20056;-73
2023/05/07 04:08:25;;;;;;;10.50;6.70;;;16.40;84.00;;;15.65;68.23;100547.03;5047905;28;20037;-74
2023/05/07 04:11:00;;;;;;;10.50;6.40;;;16.30;84.00;;;15.66;68.19;100550.53;5027232;28;20052;-74
2023/05/07 04:13:31;;;;;;;10.48;5.95;;;16.30;84.10;;;15.65;68.53;100560.47;5026528;28;20505;-74
2023/05/07 04:16:03;;;;;;;10.00;6.18;;;16.30;84.30;;;15.65;68.39;100555.09;5032733;28;20056;-73
2023/05/07 04:18:30;;;;;;;9.32;6.00;;;16.30;84.30;;;15.65;68.49;100556.97;5028251;28;20136;-73
2023/05/07 04:20:57;;;;;;;9.27;6.38;;;16.30;84.40;;;15.65;68.55;100556.97;5042163;28;20114;-73
2023/05/07 04:23:25;;;;;;;8.82;5.70;;;16.30;84.40;;;15.65;68.71;100557.78;5048075;28;20110;-73
2023/05/07 04:25:54;;;;;;;8.30;6.50;;;16.30;84.50;;;15.65;68.70;100565.06;5035492;28;20045;-74
2023/05/07 04:28:27;;;;;;;9.13;6.43;;;16.30;84.50;;;15.64;68.97;100560.75;5033699;28;20045;-74
2023/05/07 04:30:54;;;;;;;11.15;6.57;;;16.30;84.70;;;15.63;69.04;100568.00;5041961;28;20056;-74
2023/05/07 04:33:22;;;;;;;10.77;6.78;;;16.30;84.80;;;15.64;69.00;100566.94;5029843;28;20128;-74
2023/05/07 04:35:50;;;;;;;12.05;6.50;;;16.30;84.90;;;15.65;69.24;100556.97;5041281;28;20048;-74
2023/05/07 04:38:19;;;;;;;8.93;6.35;;;16.30;84.90;;;15.65;69.30;100568.56;5044027;28;20099;-73
2023/05/07 04:40:48;;;;;;;12.88;7.38;;;16.30;84.80;;;15.67;69.14;100565.66;5020695;28;20049;-73
2023/05/07 04:43:20;;;;;;;11.73;7.50;;;16.40;84.90;;;15.69;69.35;100574.28;5030633;28;20049;-74
2023/05/07 04:45:52;;;;;;;11.98;8.40;;;16.40;84.90;;;15.70;69.64;100565.13;5031280;28;20052;-74
2023/05/07 04:48:21;;;;;;;16.00;8.43;;;16.40;85.00;;;15.72;69.71;100575.69;5030146;28;20052;-78
2023/05/07 04:50:50;;;;;;;11.98;8.18;;;16.40;84.90;;;15.75;69.93;100567.09;5032189;28;20358;-79
2023/05/07 04:53:18;;;;;;;10.57;7.97;;;16.40;85.10;;;15.76;70.20;100569.53;5035517;28;20057;-77
2023/05/07 04:55:46;;;;;;;10.65;7.18;;;16.40;85.40;;;15.77;70.37;100570.38;5033805;28;20114;-77
2023/05/07 04:58:13;;;;;;;11.13;7.25;;;16.50;85.60;;;15.78;70.13;100563.94;5027534;28;20048;-76
2023/05/07 05:00:43;;;;;;;11.98;8.20;;;16.50;85.50;;;15.79;70.19;100570.94;5024862;28;20041;-77
2023/05/07 05:03:12;;;;;;;11.43;7.53;;;16.50;85.70;;;15.80;70.16;100575.25;5044661;28;20127;-76
2023/05/07 05:05:40;;;;;;;10.40;7.78;;;16.50;85.30;;;15.83;70.31;100580.16;5033539;28;20093;-76
2023/05/07 05:08:08;;;;;;;13.35;8.18;;;16.50;85.90;;;15.83;70.29;100586.34;5029942;28;20091;-76
2023/05/07 05:10:38;;;;;;;12.63;8.50;;;16.50;85.60;;;15.85;70.27;100581.53;5030807;28;20051;-76
2023/05/07 05:13:06;;;;;;;14.38;9.30;;;16.50;86.00;;;15.86;70.62;100579.66;5020458;28;20140;-76
2023/05/07 05:15:34;;;;;;;14.10;9.05;;;16.60;86.40;;;15.87;70.49;100584.81;5029887;28;20501;-77
2023/05/07 05:18:01;;;;;;;13.63;9.73;;;16.60;85.90;;;15.88;70.46;100581.06;5032803;28;20041;-76
2023/05/07 05:20:30;;;;;;;14.90;8.75;;;16.60;85.70;;;15.90;70.51;100586.19;5030855;28;20033;-77
2023/05/07 05:22:57;;;;;;;11.70;8.68;;;16.60;85.70;;;15.92;70.39;100584.91;5044151;28;20515;-76
2023/05/07 05:25:25;;;;;;;10.75;7.95;;;16.60;85.70;;;15.94;70.75;100590.84;5030954;28;20044;-76
2023/05/07 05:27:52;;;;;;;12.52;8.38;;;16.60;86.40;;;15.95;71.01;100594.34;5030877;28;20128;-77
2023/05/07 05:30:19;;;;;;;13.57;8.98;;;16.60;86.70;;;15.96;70.55;100586.03;5033244;28;20584;-76
2023/05/07 05:32:47;;;;;;;11.75;7.95;;;16.70;86.30;;;16.00;70.48;100585.53;5027428;28;20126;-77
2023/05/07 05:35:15;;;;;;;17.52;8.23;;;16.70;86.30;;;16.03;70.58;100579.69;5039340;28;20051;-77
2023/05/07 05:37:45;;;;;;;11.43;8.20;;;16.70;86.20;;;16.06;70.48;100587.28;5034029;28;20057;-76
2023/05/07 05:40:13;;;;;;;12.23;7.68;;;16.70;86.40;;;16.08;70.44;100582.44;5029763;28;20048;-76
2023/05/07 05:42:40;;;;;;;10.43;7.07;;;16.80;86.30;;;16.11;70.38;100581.97;5032408;28;20053;-76
2023/05/07 05:45:10;;;;;;;14.05;8.32;;;16.80;85.90;;;16.14;70.51;100592.22;5030093;28;20048;-76
2023/05/07 05:47:38;;;;;;;15.60;7.63;;;16.80;86.30;;;16.17;70.27;100591.75;5025529;28;20042;-76
2023/05/07 05:50:07;;;;;;;14.35;8.32;;;16.80;86.10;;;16.19;70.09;100603.06;5046115;28;20053;-77
2023/05/07 05:52:34;;;;;;;10.73;7.70;;;16.90;85.90;;;16.22;70.05;100592.63;5030615;28;20524;-79
2023/05/07 05:55:04;;;;;;;13.27;8.68;;;16.90;86.00;;;16.25;70.26;100604.81;5037315;28;20056;-78
2023/05/07 05:57:31;;;;;;;11.60;7.90;;;16.90;86.40;;;16.28;70.28;100603.47;5036937;28;20048;-77
2023/05/07 05:59:58;;;;;;;11.45;8.80;;;17.00;86.10;;;16.32;70.35;100605.44;5044722;28;20133;-78
2023/05/07 06:02:26;;;;;;;11.43;8.23;;;17.00;85.90;;;16.38;70.08;100609.03;5028944;28;20903;-78
2023/05/07 06:04:53;;;;;;;12.93;9.10;;;17.00;85.70;;;16.41;70.15;100603.16;5048770;28;20045;-78
2023/05/07 06:07:23;;;;;;;13.50;9.30;;;17.00;86.10;;;16.42;70.10;100605.59;5033947;28;20041;-78
2023/05/07 06:09:50;;;;;;;12.75;8.98;;;17.10;86.10;;;16.43;70.17;100609.09;5022979;28;20053;-78
2023/05/07 06:12:19;;;;;;;13.32;8.70;;;17.10;86.10;;;16.46;70.41;100604.03;5029398;28;20047;-78
2023/05/07 06:14:48;;;;;;;12.33;8.97;;;17.10;86.30;;;16.50;70.28;100607.06;5034982;28;20059;-78
2023/05/07 06:17:15;;;;;;;15.73;9.05;;;17.20;86.30;;;16.51;70.16;100608.69;5048249;28;20052;-78
2023/05/07 06:19:42;;;;;;;12.48;9.10;;;17.20;86.10;;;16.53;70.05;100606.56;5041873;28;20240;-78
2023/05/07 06:22:11;;;;;;;12.63;8.75;;;17.20;86.00;;;16.57;69.86;100606.88;5028823;28;20055;-78
2023/05/07 06:24:38;;;;;;;13.30;8.73;;;17.20;85.70;;;16.61;69.67;100610.72;5032269;28;20498;-77
2023/05/07 06:27:07;;;;;;;11.48;8.43;;;17.30;85.70;;;16.65;69.60;100614.53;5034687;28;20049;-78
2023/05/07 06:29:36;;;;;;;12.52;8.18;;;17.30;85.40;;;16.69;69.36;100616.50;5043052;28;20493;-77
2023/05/07 06:32:08;;;;;;;11.57;8.35;;;17.30;85.50;;;16.75;69.18;100620.09;5030461;28;20048;-75
2023/05/07 06:34:36;;;;;;;14.13;7.85;;;17.40;85.10;;;16.79;69.03;100621.25;5031016;28;20056;-75
2023/05/07 06:37:03;;;;;;;11.77;8.07;;;17.50;85.10;;;16.79;68.78;100615.84;5032076;28;20052;-75
2023/05/07 06:39:49;;;;;;;10.35;8.05;;;17.50;85.10;;;16.81;68.78;100626.38;5037609;28;20630;-74
2023/05/07 06:42:17;;;;;;;12.00;7.80;;;17.50;84.90;;;16.83;68.78;100622.34;5029966;28;20136;-74
2023/05/07 06:44:49;;;;;;;11.20;7.50;;;17.50;84.90;;;16.85;68.80;100632.91;5028353;28;20045;-75
2023/05/07 06:47:18;;;;;;;9.07;6.68;;;17.50;84.90;;;16.87;68.65;100625.38;5027596;28;20497;-74
2023/05/07 06:49:49;;;;;;;11.23;6.65;;;17.60;84.90;;;16.90;68.80;100624.88;5041129;28;20060;-76
2023/05/07 06:52:19;;;;;;;9.70;6.07;;;17.70;84.90;;;16.92;68.29;100620.84;5021568;28;20053;-76
2023/05/07 06:54:47;;;;;;;9.85;6.03;;;17.60;84.40;;;16.93;68.42;100621.66;5028533;28;20139;-89
2023/05/07 06:57:17;;;;;;;9.60;6.72;;;17.60;84.50;;;16.96;68.32;100627.38;5044917;28;20130;-75
2023/05/07 06:59:44;;;;;;;9.95;6.60;;;17.70;84.50;;;16.98;68.22;100619.88;5032093;28;20057;-76
2023/05/07 07:02:13;;;;;;;9.63;5.90;;;17.70;84.50;;;16.97;68.06;100623.63;5027944;28;20052;-75
2023/05/07 07:04:41;;;;;;;10.55;6.00;;;17.70;84.20;;;16.99;68.20;100620.69;5028928;28;20067;-76
2023/05/07 07:07:11;;;;;;;7.72;5.40;;;17.70;84.20;;;17.02;68.21;100625.56;5036096;28;20059;-76
2023/05/07 07:09:39;;;;;;;11.30;5.70;;;17.70;84.20;;;17.04;68.00;100617.25;5032941;28;20547;-77
2023/05/07 07:12:08;;;;;;;11.90;5.78;;;17.70;84.10;;;17.09;68.02;100620.00;5032902;28;20130;-76
2023/05/07 07:14:38;;;;;;;7.15;5.40;;;17.80;84.00;;;17.12;67.84;100619.50;5028235;28;20053;-77
2023/05/07 07:17:06;;;;;;;9.02;6.05;;;17.80;83.90;;;17.13;67.62;100615.72;5029735;28;20516;-76
2023/05/07 07:19:34;;;;;;;9.25;5.65;;;17.80;83.70;;;17.13;67.63;100619.25;5033552;28;20052;-76
2023/05/07 07:22:04;;;;;;;9.07;5.72;;;17.80;83.50;;;17.16;67.71;100612.53;5032975;28;20048;-76
2023/05/07 07:24:31;;;;;;;10.48;5.90;;;17.90;83.80;;;17.19;67.77;100628.22;5030086;28;20074;-76
2023/05/07 07:27:02;;;;;;;8.02;5.30;;;17.90;83.90;;;17.23;67.86;100618.56;5031399;28;20448;-75
2023/05/07 07:29:30;;;;;;;8.32;5.15;;;17.90;83.90;;;17.25;68.06;100622.63;5032279;28;20474;-77
2023/05/07 07:31:57;;;;;;;8.20;5.20;;;18.00;84.10;;;17.30;68.10;100621.88;5032447;28;20076;-77
2023/05/07 07:34:25;;;;;;;7.38;4.53;;;18.00;84.00;;;17.34;67.84;100619.50;5029560;28;20051;-78
2023/05/07 07:36:54;;;;;;;8.95;5.28;;;18.10;83.90;;;17.33;67.16;100615.19;5030522;28;20049;-77
2023/05/07 07:39:21;;;;;;;8.80;4.78;;;18.10;83.20;;;17.37;67.74;100622.50;5029587;28;20037;-76
2023/05/07 07:41:51;;;;;;;8.43;4.55;;;18.10;83.70;;;17.41;67.91;100618.22;5048053;28;20049;-76
2023/05/07 07:44:20;;;;;;;8.20;5.28;;;18.10;83.90;;;17.48;67.64;100626.94;5031227;28;20052;-77
2023/05/07 07:46:52;;;;;;;7.97;4.78;;;18.20;83.70;;;17.51;67.19;100629.13;5029359;28;20826;-78
2023/05/07 07:49:21;;;;;;;7.57;4.60;;;18.20;83.00;;;17.50;66.61;100622.09;5032655;28;20049;-77
2023/05/07 07:51:48;;;;;;;7.38;4.85;;;18.20;82.50;;;17.50;66.46;100629.38;5032993;28;20180;-77
2023/05/07 07:54:18;;;;;;;9.57;4.60;;;18.20;82.30;;;17.53;66.39;100636.16;5028484;28;20041;-76
2023/05/07 07:56:45;;;;;;;7.15;4.50;;;18.30;82.50;;;17.57;66.75;100646.19;5032728;28;20049;-76
2023/05/07 07:59:17;;;;;;;6.95;4.20;;;18.30;82.70;;;17.58;66.79;100645.13;5032518;28;20045;-78
2023/05/07 08:01:45;;;;;;;7.32;4.20;;;18.30;82.70;;;17.60;65.93;100642.16;5036101;28;20055;-78
2023/05/07 08:04:12;;;;;;;7.15;4.80;;;18.30;81.80;;;17.62;65.71;100648.13;5031379;28;20040;-76
2023/05/07 08:06:42;;;;;;;6.80;3.88;;;18.40;81.70;;;17.64;65.50;100640.59;5035278;28;20505;-76
2023/05/07 08:09:10;;;;;;;6.75;4.25;;;18.40;81.60;;;17.66;65.15;100646.53;5034941;28;20417;-77
2023/05/07 08:11:43;;;;;;;10.40;4.35;;;18.40;80.80;;;17.64;64.85;100646.78;5041694;28;20041;-75
2023/05/07 08:14:10;;;;;;;7.18;3.17;;;18.40;80.70;;;17.72;65.94;100645.53;5030907;28;20084;-76
2023/05/07 08:16:37;;;;;;;9.63;3.70;;;18.40;81.80;;;17.78;65.08;100649.13;5030455;28;20041;-75
2023/05/07 08:19:05;;;;;;;6.30;3.47;;;18.50;81.00;;;17.87;65.55;100651.13;5035927;28;20041;-74
2023/05/07 08:21:32;;;;;;;6.82;3.90;;;18.60;81.30;;;17.96;65.09;100641.50;5034428;28;20053;-75
2023/05/07 08:24:00;;;;;;;6.65;3.40;;;18.70;81.00;;;18.09;64.75;100644.81;5031344;28;20121;-75
2023/05/07 08:26:27;;;;;;;8.57;3.78;;;18.80;80.60;;;18.16;63.87;100646.25;5035841;28;20102;-76
2023/05/07 08:28:55;;;;;;;11.23;3.30;;;18.80;79.70;;;18.23;64.68;100637.94;5031820;28;20063;-75
2023/05/07 08:31:23;;;;;;;7.00;3.20;;;18.90;80.70;;;18.37;64.41;100652.63;5041046;28;20111;-75
2023/05/07 08:33:51;;;;;;;6.60;3.30;;;19.00;80.60;;;18.45;63.51;100643.25;5045292;28;20049;-74
2023/05/07 08:36:19;;;;;;;8.20;3.33;;;19.20;79.50;;;18.53;62.97;100648.97;5029631;28;20049;-75
2023/05/07 08:38:46;;;;;;;4.95;2.90;;;19.20;78.80;;;18.60;62.32;100648.75;5047116;28;20493;-75
2023/05/07 08:41:14;;;;;;;10.43;3.22;;;19.30;78.20;;;18.69;62.83;100652.63;5031847;28;20044;-75
2023/05/07 08:43:50;;;;;;;5.05;2.60;;;19.40;79.00;;;18.81;61.82;100643.50;5043422;28;20056;-75
2023/05/07 08:46:22;;;;;;;6.50;2.78;;;19.50;77.80;;;18.88;61.91;100652.19;5030981;28;20041;-75
2023/05/07 08:48:52;;;;;;;7.57;3.28;;;19.60;78.00;;;18.95;62.47;100648.19;5029731;28;20469;-75
2023/05/07 08:51:22;;;;;;;5.90;2.65;;;19.70;78.30;;;19.02;61.30;100645.22;5040568;28;20413;-75
2023/05/07 08:53:51;;;;;;;4.80;2.42;;;19.70;76.80;;;19.06;60.41;100646.34;5033865;28;20041;-75
2023/05/07 08:56:31;;;;;;;4.82;2.67;;;19.80;76.00;;;19.12;61.25;100645.28;5036856;28;20527;-75
2023/05/07 08:58:58;;;;;;;5.10;2.53;;;19.90;77.10;;;19.17;59.93;100647.19;5029762;28;20073;-75
2023/05/07 09:01:28;;;;;;;7.00;2.50;;;19.90;75.40;;;19.22;59.24;100652.63;5031311;28;20128;-75
2023/05/07 09:03:57;;;;;;;6.97;2.33;;;20.00;74.60;;;19.27;58.73;100631.81;5027305;28;20537;-75
2023/05/07 09:06:24;;;;;;;4.13;2.42;;;20.00;74.10;;;19.31;58.53;100642.91;5041598;28;20160;-74
2023/05/07 09:08:53;;;;;;;4.22;2.50;;;20.00;74.10;;;19.35;58.71;100640.50;5029878;28;20819;-74
2023/05/07 09:11:23;;;;;;;5.10;2.53;;;20.10;74.30;;;19.40;58.72;100645.94;5043547;28;20045;-74
2023/05/07 09:13:56;;;;;;;4.68;2.50;;;20.10;73.90;;;19.47;58.61;100644.63;5022450;28;20056;-74
2023/05/07 09:16:26;;;;;;;4.88;2.63;;;20.20;73.70;;;19.51;58.45;100640.28;5029193;28;20049;-73
2023/05/07 09:18:58;;;;;;;7.25;2.70;;;20.30;73.90;;;19.64;58.65;100633.59;5030274;28;20063;-73
2023/05/07 09:21:25;;;;;;;4.50;2.40;;;20.40;74.10;;;19.72;58.59;100640.38;5044265;28;20045;-73
2023/05/07 09:23:56;;;;;;;5.25;2.28;;;20.40;73.30;;;19.76;57.32;100634.16;5025103;28;20153;-74
2023/05/07 09:26:32;;;;;;;7.20;2.60;;;20.50;72.30;;;19.79;58.16;100635.50;5031905;28;20460;-72
2023/05/07 09:29:01;;;;;;;6.00;2.67;;;20.50;73.30;;;19.88;57.98;100627.69;5031104;28;20045;-72
2023/05/07 09:31:29;;;;;;;8.95;2.60;;;20.60;72.70;;;19.94;57.38;100627.41;5040659;28;20087;-74
2023/05/07 09:33:58;;;;;;;5.30;2.17;;;20.70;72.40;;;20.04;56.83;100630.13;5048989;28;20045;-73
2023/05/07 09:36:29;;;;;;;4.18;2.17;;;20.80;71.50;;;20.16;56.38;100629.06;5038876;28;20049;-73
2023/05/07 09:39:00;;;;;;;4.13;2.30;;;20.90;71.00;;;20.16;54.98;100626.34;5031727;28;20043;-74
2023/05/07 09:41:27;;;;;;;5.88;2.20;;;20.90;69.90;;;20.14;55.14;100632.00;5030643;28;20055;-74
2023/05/07 09:44:10;;;;;;;5.00;2.03;;;20.90;69.80;;;20.13;55.75;100635.00;5046362;28;20117;-73
2023/05/07 09:46:44;;;;;;;5.47;2.35;;;20.90;70.70;;;20.12;54.66;100636.09;5032212;28;20056;-73
2023/05/07 09:49:24;;;;;;;4.35;2.35;;;20.90;69.50;;;20.04;54.61;100632.81;5040888;28;20040;-74
2023/05/07 09:52:00;;;;;;;6.70;2.00;;;20.80;69.30;;;20.00;54.30;100626.31;5030278;28;20052;-73
2023/05/07 09:54:29;;;;;;;4.85;2.03;;;20.80;68.60;;;19.98;55.01;100639.31;5025222;28;20111;-73
2023/05/07 09:56:59;;;;;;;5.97;2.15;;;20.80;69.10;;;20.01;54.70;100630.69;5042161;28;20820;-73
2023/05/07 09:59:28;;;;;;;6.40;1.98;;;20.80;69.20;;;20.04;53.64;100635.53;5041014;28;20098;-73
2023/05/07 10:01:59;;;;;;;4.10;2.25;;;20.80;68.00;;;20.04;54.87;100627.41;5032423;28;20505;-73
2023/05/07 10:04:28;;;;;;;4.95;2.63;;;20.80;69.10;;;20.11;55.91;100623.63;5031519;28;20041;-73
2023/05/07 10:06:56;;;;;;;4.13;2.35;;;20.90;70.70;;;20.14;55.37;100621.19;5030038;28;20059;-74
2023/05/07 10:09:25;;;;;;;4.22;2.25;;;20.90;69.70;;;20.13;55.10;100622.28;5033604;28;20045;-74
2023/05/07 10:11:53;;;;;;;6.22;2.25;;;20.90;69.30;;;20.15;55.05;100628.22;5036042;28;20044;-74
2023/05/07 10:14:22;;;;;;;5.30;2.67;;;20.90;69.50;;;20.19;55.15;100613.06;5025702;28;20037;-74
2023/05/07 10:16:50;;;;;;;5.00;2.55;;;21.00;69.60;;;20.24;54.59;100625.78;5041189;28;20076;-74